sensor_id;sensor_type;location;lat;lon;timestamp;noise_LAeq;noise_LA_min;noise_LA_max;noise_LA01;noise_LA95
36217;Laerm;22259;48.792;8.964;2023-06-10T00:01:41;46.02;41.28;53.21;;
36217;Laerm;22259;48.792;8.964;2023-06-10T00:04:08;45.24;40.71;55.85;;
36217;Laerm;22259;48.792;8.964;2023-06-10T00:06:33;45.24;40.73;52.88;;
36217;Laerm;22259;48.792;8.964;2023-06-10T00:09:02;43.57;39.97;47.92;;
36217;Laerm;22259;48.792;8.964;2023-06-10T00:11:29;44.78;40.55;50.67;;
36217;Laerm;22259;48.792;8.964;2023-06-10T00:13:54;44.18;41.16;52.11;;
36217;Laerm;22259;48.792;8.964;2023-06-10T00:16:20;54.73;41.42;70.96;;
36217;Laerm;22259;48.792;8.964;2023-06-10T00:18:45;44.09;41.96;51.90;;
36217;Laerm;22259;48.792;8.964;2023-06-10T00:21:12;45.05;42.78;49.32;;
36217;Laerm;22259;48.792;8.964;2023-06-10T00:23:38;43.99;41.06;49.53;;
36217;Laerm;22259;48.792;8.964;2023-06-10T00:26:04;43.74;41.26;47.15;;
36217;Laerm;22259;48.792;8.964;2023-06-10T00:28:30;43.89;41.59;46.65;;
36217;Laerm;22259;48.792;8.964;2023-06-10T00:30:55;43.70;39.97;48.96;;
36217;Laerm;22259;48.792;8.964;2023-06-10T00:33:21;44.04;40.71;57.22;;
36217;Laerm;22259;48.792;8.964;2023-06-10T00:35:46;43.14;39.52;45.75;;
36217;Laerm;22259;48.792;8.964;2023-06-10T00:38:13;43.35;40.69;45.41;;
36217;Laerm;22259;48.792;8.964;2023-06-10T00:40:39;43.45;40.73;47.35;;
36217;Laerm;22259;48.792;8.964;2023-06-10T00:43:05;43.60;40.64;51.18;;
36217;Laerm;22259;48.792;8.964;2023-06-10T00:45:31;44.27;41.64;50.06;;
36217;Laerm;22259;48.792;8.964;2023-06-10T00:47:56;51.16;41.08;66.98;;
36217;Laerm;22259;48.792;8.964;2023-06-10T00:50:22;44.04;41.40;61.61;;
36217;Laerm;22259;48.792;8.964;2023-06-10T00:52:47;44.10;41.81;47.06;;
36217;Laerm;22259;48.792;8.964;2023-06-10T00:55:13;43.54;40.95;45.55;;
36217;Laerm;22259;48.792;8.964;2023-06-10T00:57:39;44.35;41.09;53.38;;
36217;Laerm;22259;48.792;8.964;2023-06-10T01:00:05;44.10;41.63;48.39;;
36217;Laerm;22259;48.792;8.964;2023-06-10T01:02:33;44.48;41.64;49.24;;
36217;Laerm;22259;48.792;8.964;2023-06-10T01:04:58;44.76;41.88;49.02;;
36217;Laerm;22259;48.792;8.964;2023-06-10T01:07:25;44.05;41.34;47.27;;
36217;Laerm;22259;48.792;8.964;2023-06-10T01:10:11;44.75;42.06;50.80;;
36217;Laerm;22259;48.792;8.964;2023-06-10T01:12:39;45.21;41.04;52.82;;
36217;Laerm;22259;48.792;8.964;2023-06-10T01:15:06;53.34;41.22;69.56;;
36217;Laerm;22259;48.792;8.964;2023-06-10T01:17:32;44.29;41.14;48.82;;
36217;Laerm;22259;48.792;8.964;2023-06-10T01:19:58;43.85;40.11;47.84;;
36217;Laerm;22259;48.792;8.964;2023-06-10T01:22:27;44.13;41.75;46.45;;
36217;Laerm;22259;48.792;8.964;2023-06-10T01:25:01;43.81;41.08;47.43;;
36217;Laerm;22259;48.792;8.964;2023-06-10T01:27:29;43.99;40.60;47.80;;
36217;Laerm;22259;48.792;8.964;2023-06-10T01:29:58;44.62;41.64;52.58;;
36217;Laerm;22259;48.792;8.964;2023-06-10T01:32:29;44.91;40.26;54.79;;
36217;Laerm;22259;48.792;8.964;2023-06-10T01:34:56;45.07;39.73;50.92;;
36217;Laerm;22259;48.792;8.964;2023-06-10T01:37:22;44.81;40.16;52.76;;
36217;Laerm;22259;48.792;8.964;2023-06-10T01:39:49;44.72;39.97;51.04;;
36217;Laerm;22259;48.792;8.964;2023-06-10T01:42:16;44.92;41.73;49.46;;
36217;Laerm;22259;48.792;8.964;2023-06-10T01:44:42;44.31;40.71;49.68;;
36217;Laerm;22259;48.792;8.964;2023-06-10T01:47:08;51.09;39.78;66.17;;
36217;Laerm;22259;48.792;8.964;2023-06-10T01:49:33;44.42;41.55;55.02;;
36217;Laerm;22259;48.792;8.964;2023-06-10T01:51:59;43.99;41.53;48.20;;
36217;Laerm;22259;48.792;8.964;2023-06-10T01:54:25;44.49;41.50;49.08;;
36217;Laerm;22259;48.792;8.964;2023-06-10T01:56:51;44.23;41.51;46.76;;
36217;Laerm;22259;48.792;8.964;2023-06-10T01:59:16;44.74;42.06;47.89;;
36217;Laerm;22259;48.792;8.964;2023-06-10T02:01:42;44.37;41.53;50.98;;
36217;Laerm;22259;48.792;8.964;2023-06-10T02:04:07;43.68;41.61;45.38;;
36217;Laerm;22259;48.792;8.964;2023-06-10T02:06:32;43.28;40.03;45.98;;
36217;Laerm;22259;48.792;8.964;2023-06-10T02:08:59;43.24;40.13;45.75;;
36217;Laerm;22259;48.792;8.964;2023-06-10T02:11:24;43.44;40.91;45.67;;
36217;Laerm;22259;48.792;8.964;2023-06-10T02:13:51;43.51;41.26;47.84;;
36217;Laerm;22259;48.792;8.964;2023-06-10T02:16:17;50.75;40.87;68.04;;
36217;Laerm;22259;48.792;8.964;2023-06-10T02:18:43;43.55;40.38;49.85;;
36217;Laerm;22259;48.792;8.964;2023-06-10T02:21:08;44.25;41.00;51.18;;
36217;Laerm;22259;48.792;8.964;2023-06-10T02:23:34;44.97;42.32;51.85;;
36217;Laerm;22259;48.792;8.964;2023-06-10T02:26:00;45.53;41.81;57.09;;
36217;Laerm;22259;48.792;8.964;2023-06-10T02:28:25;48.27;42.19;62.55;;
36217;Laerm;22259;48.792;8.964;2023-06-10T02:30:51;49.37;42.09;62.21;;
36217;Laerm;22259;48.792;8.964;2023-06-10T02:33:17;48.93;42.22;62.19;;
36217;Laerm;22259;48.792;8.964;2023-06-10T02:35:42;49.89;41.86;62.40;;
36217;Laerm;22259;48.792;8.964;2023-06-10T02:38:08;50.16;42.72;62.98;;
36217;Laerm;22259;48.792;8.964;2023-06-10T02:40:33;47.96;41.86;61.67;;
36217;Laerm;22259;48.792;8.964;2023-06-10T02:42:58;46.50;42.47;55.56;;
36217;Laerm;22259;48.792;8.964;2023-06-10T02:45:24;46.00;42.18;54.82;;
36217;Laerm;22259;48.792;8.964;2023-06-10T02:47:49;52.67;42.74;68.76;;
36217;Laerm;22259;48.792;8.964;2023-06-10T02:50:15;45.98;42.44;53.03;;
36217;Laerm;22259;48.792;8.964;2023-06-10T02:52:41;45.87;42.38;53.80;;
36217;Laerm;22259;48.792;8.964;2023-06-10T02:55:07;46.95;41.77;58.62;;
36217;Laerm;22259;48.792;8.964;2023-06-10T02:57:32;49.15;42.40;63.75;;
36217;Laerm;22259;48.792;8.964;2023-06-10T02:59:57;53.35;42.33;68.09;;
36217;Laerm;22259;48.792;8.964;2023-06-10T03:02:23;49.09;41.72;67.94;;
36217;Laerm;22259;48.792;8.964;2023-06-10T03:04:56;46.17;41.65;64.01;;
36217;Laerm;22259;48.792;8.964;2023-06-10T03:07:22;46.42;42.50;58.54;;
36217;Laerm;22259;48.792;8.964;2023-06-10T03:09:48;45.05;41.81;54.74;;
36217;Laerm;22259;48.792;8.964;2023-06-10T03:12:13;46.32;41.26;64.37;;
36217;Laerm;22259;48.792;8.964;2023-06-10T03:14:39;47.83;42.21;65.95;;
36217;Laerm;22259;48.792;8.964;2023-06-10T03:17:04;51.06;41.28;67.92;;
36217;Laerm;22259;48.792;8.964;2023-06-10T03:19:30;45.31;41.28;58.60;;
36217;Laerm;22259;48.792;8.964;2023-06-10T03:22:12;44.50;41.04;60.24;;
36217;Laerm;22259;48.792;8.964;2023-06-10T03:24:37;47.28;41.34;61.45;;
36217;Laerm;22259;48.792;8.964;2023-06-10T03:27:07;47.07;40.95;63.37;;
36217;Laerm;22259;48.792;8.964;2023-06-10T03:29:33;45.39;41.14;61.08;;
36217;Laerm;22259;48.792;8.964;2023-06-10T03:31:59;43.85;41.79;52.02;;
36217;Laerm;22259;48.792;8.964;2023-06-10T03:34:24;48.38;42.37;53.71;;
36217;Laerm;22259;48.792;8.964;2023-06-10T03:36:50;49.23;46.63;57.17;;
36217;Laerm;22259;48.792;8.964;2023-06-10T03:39:15;49.24;46.25;58.07;;
36217;Laerm;22259;48.792;8.964;2023-06-10T03:41:40;48.78;46.35;57.17;;
36217;Laerm;22259;48.792;8.964;2023-06-10T03:44:06;48.97;46.54;53.70;;
36217;Laerm;22259;48.792;8.964;2023-06-10T03:46:31;54.67;41.55;71.20;;
36217;Laerm;22259;48.792;8.964;2023-06-10T03:48:57;46.74;41.96;63.69;;
36217;Laerm;22259;48.792;8.964;2023-06-10T03:51:25;46.38;41.28;60.06;;
36217;Laerm;22259;48.792;8.964;2023-06-10T03:53:51;45.05;41.75;58.11;;
36217;Laerm;22259;48.792;8.964;2023-06-10T03:56:16;44.74;42.38;51.76;;
36217;Laerm;22259;48.792;8.964;2023-06-10T03:58:42;44.95;41.88;57.76;;
36217;Laerm;22259;48.792;8.964;2023-06-10T04:01:07;45.06;42.13;60.76;;
36217;Laerm;22259;48.792;8.964;2023-06-10T04:03:32;46.16;41.89;69.09;;
36217;Laerm;22259;48.792;8.964;2023-06-10T04:05:58;44.24;41.76;50.24;;
36217;Laerm;22259;48.792;8.964;2023-06-10T04:08:23;50.33;41.77;74.02;;
36217;Laerm;22259;48.792;8.964;2023-06-10T04:10:49;52.60;41.75;75.25;;
36217;Laerm;22259;48.792;8.964;2023-06-10T04:13:14;45.60;41.73;60.05;;
36217;Laerm;22259;48.792;8.964;2023-06-10T04:15:40;52.22;41.75;70.61;;
36217;Laerm;22259;48.792;8.964;2023-06-10T04:18:06;50.16;41.08;66.69;;
36217;Laerm;22259;48.792;8.964;2023-06-10T04:20:31;45.60;41.50;60.07;;
36217;Laerm;22259;48.792;8.964;2023-06-10T04:22:57;47.32;40.91;63.55;;
36217;Laerm;22259;48.792;8.964;2023-06-10T04:25:22;44.15;41.63;59.66;;
36217;Laerm;22259;48.792;8.964;2023-06-10T04:27:49;43.54;40.87;51.32;;
36217;Laerm;22259;48.792;8.964;2023-06-10T04:30:14;47.40;40.89;61.38;;
36217;Laerm;22259;48.792;8.964;2023-06-10T04:32:40;43.37;41.50;49.96;;
36217;Laerm;22259;48.792;8.964;2023-06-10T04:35:06;45.24;41.53;60.66;;
36217;Laerm;22259;48.792;8.964;2023-06-10T04:37:31;44.00;40.87;57.76;;
36217;Laerm;22259;48.792;8.964;2023-06-10T04:39:57;43.24;40.55;49.27;;
36217;Laerm;22259;48.792;8.964;2023-06-10T04:42:22;43.15;41.14;51.10;;
36217;Laerm;22259;48.792;8.964;2023-06-10T04:44:47;50.61;41.34;70.64;;
36217;Laerm;22259;48.792;8.964;2023-06-10T04:47:13;48.32;40.97;64.43;;
36217;Laerm;22259;48.792;8.964;2023-06-10T04:49:38;44.08;40.89;52.16;;
36217;Laerm;22259;48.792;8.964;2023-06-10T04:52:04;43.74;41.28;52.49;;
36217;Laerm;22259;48.792;8.964;2023-06-10T04:54:30;46.22;41.40;69.15;;
36217;Laerm;22259;48.792;8.964;2023-06-10T04:56:55;49.43;41.12;76.40;;
36217;Laerm;22259;48.792;8.964;2023-06-10T04:59:20;49.81;40.71;78.37;;
36217;Laerm;22259;48.792;8.964;2023-06-10T05:01:46;43.92;40.26;56.28;;
36217;Laerm;22259;48.792;8.964;2023-06-10T05:04:11;43.67;40.85;60.11;;
36217;Laerm;22259;48.792;8.964;2023-06-10T05:06:37;43.50;40.43;52.30;;
36217;Laerm;22259;48.792;8.964;2023-06-10T05:09:02;43.86;41.19;55.99;;
36217;Laerm;22259;48.792;8.964;2023-06-10T05:11:27;43.77;41.22;54.10;;
36217;Laerm;22259;48.792;8.964;2023-06-10T05:13:53;44.36;40.85;53.08;;
36217;Laerm;22259;48.792;8.964;2023-06-10T05:16:18;55.33;41.94;71.11;;
36217;Laerm;22259;48.792;8.964;2023-06-10T05:18:43;44.30;41.66;52.30;;
36217;Laerm;22259;48.792;8.964;2023-06-10T05:21:09;44.33;41.68;59.62;;
36217;Laerm;22259;48.792;8.964;2023-06-10T05:23:35;44.68;41.88;55.21;;
36217;Laerm;22259;48.792;8.964;2023-06-10T05:26:00;44.54;41.28;57.71;;
36217;Laerm;22259;48.792;8.964;2023-06-10T05:28:25;45.53;41.30;63.05;;
36217;Laerm;22259;48.792;8.964;2023-06-10T05:30:51;43.58;40.97;51.02;;
36217;Laerm;22259;48.792;8.964;2023-06-10T05:33:16;43.76;41.36;49.82;;
36217;Laerm;22259;48.792;8.964;2023-06-10T05:35:42;43.32;41.32;49.47;;
36217;Laerm;22259;48.792;8.964;2023-06-10T05:38:07;43.64;41.36;49.25;;
36217;Laerm;22259;48.792;8.964;2023-06-10T05:40:32;46.18;41.40;61.61;;
36217;Laerm;22259;48.792;8.964;2023-06-10T05:42:58;43.76;41.10;55.32;;
36217;Laerm;22259;48.792;8.964;2023-06-10T05:45:23;54.75;41.38;71.22;;
36217;Laerm;22259;48.792;8.964;2023-06-10T05:47:48;48.54;41.20;63.19;;
36217;Laerm;22259;48.792;8.964;2023-06-10T05:50:14;44.59;41.34;59.67;;
36217;Laerm;22259;48.792;8.964;2023-06-10T05:52:40;60.42;41.94;77.65;;
36217;Laerm;22259;48.792;8.964;2023-06-10T05:55:06;43.79;41.51;55.30;;
36217;Laerm;22259;48.792;8.964;2023-06-10T05:57:31;43.30;41.34;49.05;;
36217;Laerm;22259;48.792;8.964;2023-06-10T05:59:57;54.04;40.95;70.37;;
36217;Laerm;22259;48.792;8.964;2023-06-10T06:02:23;44.03;40.93;57.02;;
36217;Laerm;22259;48.792;8.964;2023-06-10T06:04:48;48.09;41.26;62.57;;
36217;Laerm;22259;48.792;8.964;2023-06-10T06:07:14;50.21;40.95;64.92;;
36217;Laerm;22259;48.792;8.964;2023-06-10T06:09:39;48.28;41.16;64.37;;
36217;Laerm;22259;48.792;8.964;2023-06-10T06:12:05;44.49;40.82;60.68;;
36217;Laerm;22259;48.792;8.964;2023-06-10T06:14:32;51.32;40.69;69.07;;
36217;Laerm;22259;48.792;8.964;2023-06-10T06:16:58;52.85;40.53;71.99;;
36217;Laerm;22259;48.792;8.964;2023-06-10T06:19:23;47.34;40.97;62.05;;
36217;Laerm;22259;48.792;8.964;2023-06-10T06:21:48;43.99;41.02;60.88;;
36217;Laerm;22259;48.792;8.964;2023-06-10T06:24:15;45.17;41.22;65.15;;
36217;Laerm;22259;48.792;8.964;2023-06-10T06:26:40;52.72;40.89;76.62;;
36217;Laerm;22259;48.792;8.964;2023-06-10T06:29:06;44.21;41.24;52.26;;
36217;Laerm;22259;48.792;8.964;2023-06-10T06:31:31;54.53;41.59;70.35;;
36217;Laerm;22259;48.792;8.964;2023-06-10T06:33:57;44.10;41.30;57.88;;
36217;Laerm;22259;48.792;8.964;2023-06-10T06:36:22;43.62;41.24;55.07;;
36217;Laerm;22259;48.792;8.964;2023-06-10T06:38:47;45.25;40.95;59.33;;
36217;Laerm;22259;48.792;8.964;2023-06-10T06:41:13;46.05;40.60;62.57;;
36217;Laerm;22259;48.792;8.964;2023-06-10T06:43:38;54.45;40.78;74.44;;
36217;Laerm;22259;48.792;8.964;2023-06-10T06:46:04;57.97;41.20;74.24;;
36217;Laerm;22259;48.792;8.964;2023-06-10T06:48:29;51.06;41.00;75.87;;
36217;Laerm;22259;48.792;8.964;2023-06-10T06:50:54;44.82;41.00;63.16;;
36217;Laerm;22259;48.792;8.964;2023-06-10T06:53:21;44.77;40.91;61.54;;
36217;Laerm;22259;48.792;8.964;2023-06-10T06:55:46;45.39;41.68;61.01;;
36217;Laerm;22259;48.792;8.964;2023-06-10T06:58:12;44.81;40.64;60.81;;
36217;Laerm;22259;48.792;8.964;2023-06-10T07:00:44;56.54;41.36;71.97;;
36217;Laerm;22259;48.792;8.964;2023-06-10T07:03:21;53.20;41.63;71.48;;
36217;Laerm;22259;48.792;8.964;2023-06-10T07:05:47;44.67;41.15;59.04;;
36217;Laerm;22259;48.792;8.964;2023-06-10T07:08:12;44.25;41.82;57.27;;
36217;Laerm;22259;48.792;8.964;2023-06-10T07:10:37;46.05;41.72;59.14;;
36217;Laerm;22259;48.792;8.964;2023-06-10T07:13:03;44.70;41.22;62.33;;
36217;Laerm;22259;48.792;8.964;2023-06-10T07:15:28;55.38;41.77;71.17;;
36217;Laerm;22259;48.792;8.964;2023-06-10T07:17:54;52.97;41.98;70.42;;
36217;Laerm;22259;48.792;8.964;2023-06-10T07:20:20;44.72;41.50;55.99;;
36217;Laerm;22259;48.792;8.964;2023-06-10T07:22:45;43.57;40.85;50.28;;
36217;Laerm;22259;48.792;8.964;2023-06-10T07:25:11;43.41;41.38;49.32;;
36217;Laerm;22259;48.792;8.964;2023-06-10T07:27:36;47.75;41.36;63.50;;
36217;Laerm;22259;48.792;8.964;2023-06-10T07:30:02;56.23;41.28;72.90;;
36217;Laerm;22259;48.792;8.964;2023-06-10T07:32:28;53.38;41.77;68.78;;
36217;Laerm;22259;48.792;8.964;2023-06-10T07:34:53;46.17;42.76;63.43;;
36217;Laerm;22259;48.792;8.964;2023-06-10T07:37:19;45.14;42.19;59.90;;
36217;Laerm;22259;48.792;8.964;2023-06-10T07:39:44;44.71;42.18;59.03;;
36217;Laerm;22259;48.792;8.964;2023-06-10T07:42:10;44.88;42.90;53.68;;
36217;Laerm;22259;48.792;8.964;2023-06-10T07:44:35;44.88;42.43;56.94;;
36217;Laerm;22259;48.792;8.964;2023-06-10T07:47:01;54.19;42.21;71.56;;
36217;Laerm;22259;48.792;8.964;2023-06-10T07:49:26;55.65;42.50;72.26;;
36217;Laerm;22259;48.792;8.964;2023-06-10T07:51:53;45.13;41.34;54.74;;
36217;Laerm;22259;48.792;8.964;2023-06-10T07:54:18;47.35;41.99;71.95;;
36217;Laerm;22259;48.792;8.964;2023-06-10T07:56:44;50.03;42.72;72.82;;
36217;Laerm;22259;48.792;8.964;2023-06-10T07:59:09;46.60;42.56;60.89;;
36217;Laerm;22259;48.792;8.964;2023-06-10T08:01:34;57.40;42.03;72.29;;
36217;Laerm;22259;48.792;8.964;2023-06-10T08:04:03;44.91;42.43;54.36;;
36217;Laerm;22259;48.792;8.964;2023-06-10T08:06:28;44.93;42.19;56.86;;
36217;Laerm;22259;48.792;8.964;2023-06-10T08:08:53;47.68;42.76;61.49;;
36217;Laerm;22259;48.792;8.964;2023-06-10T08:11:19;46.42;41.98;66.88;;
36217;Laerm;22259;48.792;8.964;2023-06-10T08:13:44;45.28;42.06;56.33;;
36217;Laerm;22259;48.792;8.964;2023-06-10T08:16:10;56.54;42.35;70.67;;
36217;Laerm;22259;48.792;8.964;2023-06-10T08:18:35;45.00;42.74;52.70;;
36217;Laerm;22259;48.792;8.964;2023-06-10T08:21:00;44.77;42.52;58.24;;
36217;Laerm;22259;48.792;8.964;2023-06-10T08:23:26;58.55;42.85;75.48;;
36217;Laerm;22259;48.792;8.964;2023-06-10T08:25:51;54.58;42.59;68.76;;
36217;Laerm;22259;48.792;8.964;2023-06-10T08:28:17;46.86;43.15;59.83;;
36217;Laerm;22259;48.792;8.964;2023-06-10T08:30:43;48.46;42.44;60.91;;
36217;Laerm;22259;48.792;8.964;2023-06-10T08:33:09;59.97;42.30;74.85;;
36217;Laerm;22259;48.792;8.964;2023-06-10T08:35:34;54.91;43.12;73.55;;
36217;Laerm;22259;48.792;8.964;2023-06-10T08:38:00;52.45;43.08;67.55;;
36217;Laerm;22259;48.792;8.964;2023-06-10T08:40:25;46.59;43.05;66.14;;
36217;Laerm;22259;48.792;8.964;2023-06-10T08:43:00;48.04;43.42;65.08;;
36217;Laerm;22259;48.792;8.964;2023-06-10T08:45:27;55.31;42.81;71.76;;
36217;Laerm;22259;48.792;8.964;2023-06-10T08:47:54;54.00;42.96;69.72;;
36217;Laerm;22259;48.792;8.964;2023-06-10T08:50:22;47.26;42.17;63.80;;
36217;Laerm;22259;48.792;8.964;2023-06-10T08:52:48;45.50;42.21;56.99;;
36217;Laerm;22259;48.792;8.964;2023-06-10T08:55:15;45.27;42.35;52.78;;
36217;Laerm;22259;48.792;8.964;2023-06-10T08:57:41;50.09;41.98;64.89;;
36217;Laerm;22259;48.792;8.964;2023-06-10T09:00:06;52.37;42.09;66.50;;
36217;Laerm;22259;48.792;8.964;2023-06-10T09:02:32;52.33;42.61;68.50;;
36217;Laerm;22259;48.792;8.964;2023-06-10T09:05:00;45.80;42.88;56.43;;
36217;Laerm;22259;48.792;8.964;2023-06-10T09:07:25;44.19;41.53;54.49;;
36217;Laerm;22259;48.792;8.964;2023-06-10T09:09:51;45.79;42.11;65.50;;
36217;Laerm;22259;48.792;8.964;2023-06-10T09:12:18;46.88;41.86;68.09;;
36217;Laerm;22259;48.792;8.964;2023-06-10T09:14:44;56.00;41.38;71.68;;
36217;Laerm;22259;48.792;8.964;2023-06-10T09:17:10;54.83;42.16;70.41;;
36217;Laerm;22259;48.792;8.964;2023-06-10T09:19:35;45.61;41.84;60.46;;
36217;Laerm;22259;48.792;8.964;2023-06-10T09:22:01;45.78;41.86;58.36;;
36217;Laerm;22259;48.792;8.964;2023-06-10T09:24:27;46.09;41.26;58.77;;
36217;Laerm;22259;48.792;8.964;2023-06-10T09:27:02;44.57;41.34;57.94;;
36217;Laerm;22259;48.792;8.964;2023-06-10T09:29:28;44.93;41.22;60.48;;
36217;Laerm;22259;48.792;8.964;2023-06-10T09:31:53;57.52;42.46;72.53;;
36217;Laerm;22259;48.792;8.964;2023-06-10T09:34:18;48.32;42.04;64.59;;
36217;Laerm;22259;48.792;8.964;2023-06-10T09:36:45;52.93;41.46;74.19;;
36217;Laerm;22259;48.792;8.964;2023-06-10T09:39:17;44.60;40.67;55.37;;
36217;Laerm;22259;48.792;8.964;2023-06-10T09:41:43;53.11;42.21;68.13;;
36217;Laerm;22259;48.792;8.964;2023-06-10T09:44:15;46.99;42.82;63.80;;
36217;Laerm;22259;48.792;8.964;2023-06-10T09:46:41;58.26;42.79;72.67;;
36217;Laerm;22259;48.792;8.964;2023-06-10T09:49:07;54.81;42.27;71.33;;
36217;Laerm;22259;48.792;8.964;2023-06-10T09:51:32;57.39;42.52;69.41;;
36217;Laerm;22259;48.792;8.964;2023-06-10T09:53:57;54.70;42.27;69.31;;
36217;Laerm;22259;48.792;8.964;2023-06-10T09:56:33;53.50;42.22;71.10;;
36217;Laerm;22259;48.792;8.964;2023-06-10T09:58:59;48.07;41.99;66.24;;
36217;Laerm;22259;48.792;8.964;2023-06-10T10:01:25;57.07;41.82;74.01;;
36217;Laerm;22259;48.792;8.964;2023-06-10T10:03:50;47.48;41.91;65.02;;
36217;Laerm;22259;48.792;8.964;2023-06-10T10:06:16;45.32;41.63;61.10;;
36217;Laerm;22259;48.792;8.964;2023-06-10T10:08:41;45.28;41.24;61.70;;
36217;Laerm;22259;48.792;8.964;2023-06-10T10:11:08;44.26;41.06;54.12;;
36217;Laerm;22259;48.792;8.964;2023-06-10T10:13:34;44.38;41.34;52.94;;
36217;Laerm;22259;48.792;8.964;2023-06-10T10:16:00;54.55;41.55;70.86;;
36217;Laerm;22259;48.792;8.964;2023-06-10T10:18:26;56.17;41.73;73.01;;
36217;Laerm;22259;48.792;8.964;2023-06-10T10:20:55;52.77;40.97;69.35;;
36217;Laerm;22259;48.792;8.964;2023-06-10T10:23:24;55.57;41.91;70.30;;
36217;Laerm;22259;48.792;8.964;2023-06-10T10:25:52;51.87;42.24;74.84;;
36217;Laerm;22259;48.792;8.964;2023-06-10T10:28:19;47.08;41.96;60.09;;
36217;Laerm;22259;48.792;8.964;2023-06-10T10:30:46;56.68;42.04;70.81;;
36217;Laerm;22259;48.792;8.964;2023-06-10T10:33:18;45.07;41.94;58.53;;
36217;Laerm;22259;48.792;8.964;2023-06-10T10:35:45;44.17;40.81;59.42;;
36217;Laerm;22259;48.792;8.964;2023-06-10T10:38:11;44.20;41.18;56.36;;
36217;Laerm;22259;48.792;8.964;2023-06-10T10:40:36;43.76;41.08;57.76;;
36217;Laerm;22259;48.792;8.964;2023-06-10T10:43:02;45.87;41.51;57.18;;
36217;Laerm;22259;48.792;8.964;2023-06-10T10:45:28;55.69;41.57;72.08;;
36217;Laerm;22259;48.792;8.964;2023-06-10T10:47:54;54.20;41.48;69.52;;
36217;Laerm;22259;48.792;8.964;2023-06-10T10:50:23;49.76;41.06;65.90;;
36217;Laerm;22259;48.792;8.964;2023-06-10T10:52:55;45.73;40.92;68.74;;
36217;Laerm;22259;48.792;8.964;2023-06-10T10:55:21;54.84;41.00;76.89;;
36217;Laerm;22259;48.792;8.964;2023-06-10T10:57:56;52.50;40.71;66.88;;
36217;Laerm;22259;48.792;8.964;2023-06-10T11:00:27;57.15;40.89;72.66;;
36217;Laerm;22259;48.792;8.964;2023-06-10T11:02:52;53.42;41.84;69.15;;
36217;Laerm;22259;48.792;8.964;2023-06-10T11:05:19;45.12;41.10;54.11;;
36217;Laerm;22259;48.792;8.964;2023-06-10T11:07:56;45.25;41.89;59.59;;
36217;Laerm;22259;48.792;8.964;2023-06-10T11:10:33;46.34;40.60;59.64;;
36217;Laerm;22259;48.792;8.964;2023-06-10T11:12:59;45.03;40.67;61.87;;
36217;Laerm;22259;48.792;8.964;2023-06-10T11:15:26;56.68;40.60;76.41;;
36217;Laerm;22259;48.792;8.964;2023-06-10T11:18:07;52.46;40.95;69.64;;
36217;Laerm;22259;48.792;8.964;2023-06-10T11:20:51;49.56;40.41;77.40;;
36217;Laerm;22259;48.792;8.964;2023-06-10T11:26:22;45.32;41.75;58.21;;
36217;Laerm;22259;48.792;8.964;2023-06-10T11:29:00;46.06;42.37;61.07;;
36217;Laerm;22259;48.792;8.964;2023-06-10T11:31:27;57.07;41.28;73.17;;
36217;Laerm;22259;48.792;8.964;2023-06-10T11:33:57;53.15;40.62;68.57;;
36217;Laerm;22259;48.792;8.964;2023-06-10T11:36:23;44.66;41.34;56.40;;
36217;Laerm;22259;48.792;8.964;2023-06-10T11:38:49;45.77;42.06;55.90;;
36217;Laerm;22259;48.792;8.964;2023-06-10T11:41:15;45.91;40.87;63.73;;
36217;Laerm;22259;48.792;8.964;2023-06-10T11:43:45;50.87;40.05;69.78;;
36217;Laerm;22259;48.792;8.964;2023-06-10T11:46:14;59.47;41.70;79.50;;
36217;Laerm;22259;48.792;8.964;2023-06-10T11:48:53;56.66;41.72;72.65;;
36217;Laerm;22259;48.792;8.964;2023-06-10T11:51:18;59.66;41.00;74.68;;
36217;Laerm;22259;48.792;8.964;2023-06-10T11:53:47;56.86;40.62;72.94;;
36217;Laerm;22259;48.792;8.964;2023-06-10T11:56:13;51.24;40.62;69.85;;
36217;Laerm;22259;48.792;8.964;2023-06-10T11:58:39;53.10;40.67;69.22;;
36217;Laerm;22259;48.792;8.964;2023-06-10T12:01:07;56.07;40.78;70.02;;
36217;Laerm;22259;48.792;8.964;2023-06-10T12:03:36;54.62;40.78;71.42;;
36217;Laerm;22259;48.792;8.964;2023-06-10T12:06:05;54.46;42.16;69.05;;
36217;Laerm;22259;48.792;8.964;2023-06-10T12:08:31;54.57;40.78;69.79;;
36217;Laerm;22259;48.792;8.964;2023-06-10T12:10:57;54.10;40.69;69.98;;
36217;Laerm;22259;48.792;8.964;2023-06-10T12:13:23;43.83;40.26;58.52;;
36217;Laerm;22259;48.792;8.964;2023-06-10T12:15:49;55.41;40.85;72.37;;
36217;Laerm;22259;48.792;8.964;2023-06-10T12:18:21;43.10;39.92;50.57;;
36217;Laerm;22259;48.792;8.964;2023-06-10T12:20:47;43.69;40.80;56.53;;
36217;Laerm;22259;48.792;8.964;2023-06-10T12:23:13;44.22;41.55;53.50;;
36217;Laerm;22259;48.792;8.964;2023-06-10T12:25:39;47.70;41.42;61.67;;
36217;Laerm;22259;48.792;8.964;2023-06-10T12:28:05;55.88;42.66;72.36;;
36217;Laerm;22259;48.792;8.964;2023-06-10T12:30:31;56.23;41.73;73.06;;
36217;Laerm;22259;48.792;8.964;2023-06-10T12:32:56;49.43;40.62;61.80;;
36217;Laerm;22259;48.792;8.964;2023-06-10T12:35:22;54.24;41.18;69.62;;
36217;Laerm;22259;48.792;8.964;2023-06-10T12:38:00;44.20;40.21;54.73;;
36217;Laerm;22259;48.792;8.964;2023-06-10T12:40:30;44.27;40.18;54.17;;
36217;Laerm;22259;48.792;8.964;2023-06-10T12:42:56;44.92;40.48;57.93;;
36217;Laerm;22259;48.792;8.964;2023-06-10T12:45:34;56.20;40.50;73.79;;
36217;Laerm;22259;48.792;8.964;2023-06-10T12:48:06;55.11;41.48;71.66;;
36217;Laerm;22259;48.792;8.964;2023-06-10T12:50:34;52.35;41.50;71.18;;
36217;Laerm;22259;48.792;8.964;2023-06-10T12:52:59;62.79;42.40;83.06;;
36217;Laerm;22259;48.792;8.964;2023-06-10T12:55:25;62.23;41.98;80.26;;
36217;Laerm;22259;48.792;8.964;2023-06-10T12:57:51;62.94;42.40;80.71;;
36217;Laerm;22259;48.792;8.964;2023-06-10T13:00:17;63.70;43.37;82.13;;
36217;Laerm;22259;48.792;8.964;2023-06-10T13:02:43;58.31;41.84;75.43;;
36217;Laerm;22259;48.792;8.964;2023-06-10T13:05:08;56.92;41.91;79.98;;
36217;Laerm;22259;48.792;8.964;2023-06-10T13:07:34;55.02;40.85;73.14;;
36217;Laerm;22259;48.792;8.964;2023-06-10T13:09:59;61.21;42.24;83.39;;
36217;Laerm;22259;48.792;8.964;2023-06-10T13:12:25;60.29;42.16;83.47;;
36217;Laerm;22259;48.792;8.964;2023-06-10T13:14:50;60.31;41.80;78.39;;
36217;Laerm;22259;48.792;8.964;2023-06-10T13:17:16;59.18;41.57;80.01;;
36217;Laerm;22259;48.792;8.964;2023-06-10T13:19:41;52.69;42.18;70.93;;
36217;Laerm;22259;48.792;8.964;2023-06-10T13:22:07;54.20;42.08;74.29;;
36217;Laerm;22259;48.792;8.964;2023-06-10T13:24:32;58.47;41.63;80.79;;
36217;Laerm;22259;48.792;8.964;2023-06-10T13:26:58;51.17;41.88;72.15;;
36217;Laerm;22259;48.792;8.964;2023-06-10T13:29:23;53.19;41.63;76.66;;
36217;Laerm;22259;48.792;8.964;2023-06-10T13:31:48;61.02;42.83;77.79;;
36217;Laerm;22259;48.792;8.964;2023-06-10T13:34:14;51.66;41.55;70.79;;
36217;Laerm;22259;48.792;8.964;2023-06-10T13:36:39;47.66;41.06;66.08;;
36217;Laerm;22259;48.792;8.964;2023-06-10T13:39:05;53.88;41.84;70.42;;
36217;Laerm;22259;48.792;8.964;2023-06-10T13:41:30;55.61;40.85;70.75;;
36217;Laerm;22259;48.792;8.964;2023-06-10T13:43:55;55.16;39.40;73.47;;